createdAt,value
2019-02-19T00:02:24.220Z,72.87
2019-02-19T00:04:55.577Z,73.84
2019-02-19T00:07:27.043Z,72.54
2019-02-19T00:09:58.485Z,73.17
2019-02-19T00:12:29.918Z,73.10
2019-02-19T00:15:07.877Z,73.33
2019-02-19T00:17:34.309Z,72.47
2019-02-19T00:20:05.695Z,72.12
2019-02-19T00:22:37.017Z,72.22
2019-02-19T00:25:08.507Z,72.04
2019-02-19T00:27:39.933Z,71.90
2019-02-19T00:30:11.258Z,72.33
2019-02-19T00:32:42.635Z,72.68
2019-02-19T00:35:14.351Z,71.78
2019-02-19T00:37:45.687Z,72.45
2019-02-19T00:40:17.313Z,72.79
2019-02-19T00:42:48.638Z,72.27
2019-02-19T00:45:20.292Z,72.38
2019-02-19T00:47:51.608Z,73.42
2019-02-19T00:50:23.121Z,72.50
2019-02-19T00:52:54.557Z,72.72
2019-02-19T00:55:26.019Z,72.68
2019-02-19T00:57:57.467Z,71.87
2019-02-19T01:00:28.853Z,72.62
2019-02-19T01:03:00.282Z,73.04
2019-02-19T01:05:31.715Z,73.87
2019-02-19T01:08:03.169Z,73.29
2019-02-19T01:10:34.659Z,73.87
2019-02-19T01:13:06.089Z,73.66
2019-02-19T01:15:37.644Z,72.42
2019-02-19T01:18:09.096Z,73.30
2019-02-19T01:20:40.533Z,73.67
2019-02-19T01:23:11.860Z,73.21
2019-02-19T01:25:43.314Z,74.50
2019-02-19T01:28:14.641Z,75.20
2019-02-19T01:30:46.042Z,73.41
2019-02-19T01:33:17.580Z,72.60
2019-02-19T01:35:50.170Z,72.85
2019-02-19T01:38:21.597Z,74.26
2019-02-19T01:40:53.033Z,73.97
2019-02-19T01:43:24.372Z,75.59
2019-02-19T01:45:55.838Z,74.75
2019-02-19T01:48:27.197Z,75.78
2019-02-19T01:50:58.500Z,76.71
2019-02-19T01:53:29.811Z,75.96
2019-02-19T01:56:01.189Z,76.36
2019-02-19T01:58:32.527Z,75.83
2019-02-19T02:01:03.872Z,77.07
2019-02-19T02:03:35.232Z,76.81
2019-02-19T02:06:06.738Z,77.24
2019-02-19T02:08:38.183Z,77.39
2019-02-19T02:11:09.625Z,77.87
2019-02-19T02:13:40.942Z,76.00
2019-02-19T02:16:12.419Z,78.05
2019-02-19T02:18:43.868Z,77.41
2019-02-19T02:21:15.310Z,78.08
2019-02-19T02:23:46.694Z,77.89
2019-02-19T02:26:18.211Z,78.33
2019-02-19T02:28:49.663Z,78.63
2019-02-19T02:31:21.238Z,78.59
2019-02-19T02:33:52.866Z,79.16
2019-02-19T02:36:24.241Z,79.52
2019-02-19T02:38:55.496Z,78.50
2019-02-19T02:41:26.870Z,79.16
2019-02-19T02:43:58.198Z,78.84
2019-02-19T02:46:29.638Z,78.81
2019-02-19T02:49:01.067Z,77.32
2019-02-19T02:51:32.522Z,78.01
2019-02-19T02:54:03.973Z,78.08
2019-02-19T02:56:35.418Z,78.89
2019-02-19T02:59:06.719Z,79.36
2019-02-19T03:01:38.532Z,79.63
2019-02-19T03:04:09.863Z,80.93
2019-02-19T03:06:48.581Z,79.68
2019-02-19T03:09:19.923Z,79.70
2019-02-19T03:11:51.292Z,80.41
2019-02-19T03:14:22.683Z,80.33
2019-02-19T03:16:54.024Z,80.75
2019-02-19T03:19:25.439Z,80.03
2019-02-19T03:21:56.933Z,80.40
2019-02-19T03:24:28.382Z,80.97
2019-02-19T03:26:59.915Z,83.31
2019-02-19T03:29:31.345Z,81.37
2019-02-19T03:32:02.689Z,81.01
2019-02-19T03:34:34.156Z,80.31
2019-02-19T03:37:05.489Z,81.14
2019-02-19T03:39:38.099Z,81.59
2019-02-19T03:42:09.457Z,81.53
2019-02-19T03:44:40.824Z,81.55
2019-02-19T03:47:12.158Z,81.32
2019-02-19T03:49:43.684Z,80.73
2019-02-19T03:52:15.113Z,81.18
2019-02-19T03:54:46.575Z,81.10
2019-02-19T03:57:18.004Z,80.76
2019-02-19T03:59:49.451Z,81.25
2019-02-19T04:02:20.849Z,80.36
2019-02-19T04:04:52.297Z,80.92
2019-02-19T04:07:23.675Z,81.34
2019-02-19T04:09:55.145Z,81.39
2019-02-19T04:12:26.542Z,81.83
2019-02-19T04:14:57.857Z,80.80
2019-02-19T04:17:29.206Z,83.23
2019-02-19T04:20:00.462Z,82.01
2019-02-19T04:22:31.527Z,83.32
2019-02-19T04:25:02.889Z,82.75
2019-02-19T04:27:34.299Z,83.12
2019-02-19T04:30:07.459Z,81.73
2019-02-19T04:32:38.843Z,83.67
2019-02-19T04:35:10.162Z,81.36
2019-02-19T04:37:41.506Z,83.99
2019-02-19T04:40:12.880Z,82.80
2019-02-19T04:42:44.345Z,83.75
2019-02-19T04:45:15.707Z,82.62
2019-02-19T04:47:47.084Z,84.18
2019-02-19T04:50:19.855Z,83.68
2019-02-19T04:52:51.223Z,82.63
2019-02-19T04:55:23.022Z,84.42
2019-02-19T04:57:54.408Z,84.08
2019-02-19T05:00:25.805Z,83.37
2019-02-19T05:02:57.173Z,84.83
2019-02-19T05:05:28.605Z,83.26
2019-02-19T05:08:00.040Z,84.56
2019-02-19T05:10:32.640Z,85.04
2019-02-19T05:13:04.068Z,83.39
2019-02-19T05:15:35.499Z,82.99
2019-02-19T05:18:06.974Z,83.60
2019-02-19T05:20:38.448Z,82.85
2019-02-19T05:23:09.972Z,83.75
2019-02-19T05:25:41.519Z,83.74
2019-02-19T05:28:13.123Z,84.70
2019-02-19T05:30:44.519Z,84.27
2019-02-19T05:33:15.986Z,84.14
2019-02-19T05:35:47.436Z,83.41
2019-02-19T05:38:19.005Z,84.31
2019-02-19T05:40:50.440Z,84.00
2019-02-19T05:46:26.275Z,83.13
2019-02-19T05:48:57.721Z,83.03
2019-02-19T05:51:30.622Z,82.86
2019-02-19T05:54:02.040Z,82.88
2019-02-19T05:56:33.446Z,82.71
2019-02-19T05:59:04.792Z,81.43
2019-02-19T06:01:36.244Z,79.00
2019-02-19T06:04:07.776Z,78.40
2019-02-19T06:06:40.737Z,75.50
2019-02-19T06:09:12.054Z,75.69
2019-02-19T06:11:43.403Z,76.01
2019-02-19T06:14:14.733Z,73.90
2019-02-19T06:16:46.598Z,73.59
2019-02-19T06:19:18.314Z,72.80
2019-02-19T06:21:49.687Z,72.54
2019-02-19T06:24:21.077Z,73.67
2019-02-19T06:26:52.501Z,71.96
2019-02-19T06:29:23.923Z,71.05
2019-02-19T06:31:55.425Z,71.88
2019-02-19T06:34:26.768Z,71.28
2019-02-19T06:36:58.297Z,71.04
2019-02-19T06:39:29.659Z,71.76
2019-02-19T06:42:01.037Z,69.80
2019-02-19T06:44:32.524Z,68.79
2019-02-19T06:47:06.875Z,67.01
2019-02-19T06:49:36.933Z,68.15
2019-02-19T06:52:08.313Z,65.52
2019-02-19T06:54:39.760Z,64.23
2019-02-19T06:57:12.142Z,65.63
2019-02-19T06:59:43.618Z,65.33
2019-02-19T07:02:16.706Z,65.88
2019-02-19T07:04:49.139Z,62.96
2019-02-19T07:07:20.806Z,62.35
2019-02-19T07:09:52.200Z,62.49
2019-02-19T07:12:23.705Z,61.57
2019-02-19T07:14:55.153Z,61.17
2019-02-19T07:17:26.591Z,63.90
2019-02-19T07:19:57.876Z,60.86
2019-02-19T07:22:29.291Z,62.29
2019-02-19T07:25:01.927Z,60.88
2019-02-19T07:27:33.428Z,60.44
2019-02-19T07:30:09.579Z,61.47
2019-02-19T07:32:40.947Z,60.34
2019-02-19T07:35:12.440Z,62.26
2019-02-19T07:37:43.686Z,61.66
2019-02-19T07:40:14.735Z,61.55
2019-02-19T07:42:46.092Z,60.31
2019-02-19T07:45:17.494Z,60.96
2019-02-19T07:47:48.808Z,60.96
2019-02-19T07:50:20.209Z,59.57
2019-02-19T07:52:51.556Z,60.16
2019-02-19T07:55:22.899Z,59.31
2019-02-19T07:57:54.405Z,60.61
2019-02-19T08:00:25.719Z,58.60
2019-02-19T08:02:57.065Z,59.39
2019-02-19T08:05:28.562Z,59.05
2019-02-19T08:08:01.285Z,59.62
2019-02-19T08:10:32.741Z,57.11
2019-02-19T08:13:04.092Z,58.11
2019-02-19T08:15:35.419Z,55.12
2019-02-19T08:18:06.818Z,54.46
2019-02-19T08:20:38.224Z,52.42
2019-02-19T08:23:09.656Z,52.80
2019-02-19T08:25:41.062Z,53.12
2019-02-19T08:28:12.391Z,53.60
2019-02-19T08:30:43.740Z,53.79
2019-02-19T08:33:15.118Z,55.23
2019-02-19T08:35:46.530Z,55.99
2019-02-19T08:38:17.856Z,56.36
2019-02-19T08:40:49.195Z,55.76
2019-02-19T08:43:20.613Z,54.42
2019-02-19T08:45:51.984Z,55.66
2019-02-19T08:48:23.446Z,54.98
2019-02-19T08:50:54.811Z,55.19
2019-02-19T08:53:26.184Z,54.20
2019-02-19T08:55:57.600Z,54.01
2019-02-19T08:58:29.039Z,53.58
2019-02-19T09:01:00.488Z,54.54
2019-02-19T09:03:31.918Z,55.62
2019-02-19T09:06:03.345Z,54.36
2019-02-19T09:08:34.625Z,52.29
2019-02-19T09:11:06.012Z,52.73
2019-02-19T09:13:37.355Z,51.45
2019-02-19T09:16:08.699Z,50.75
2019-02-19T09:18:40.031Z,50.61
2019-02-19T09:21:11.641Z,49.17
2019-02-19T09:23:42.841Z,50.46
2019-02-19T09:26:14.326Z,48.25
2019-02-19T09:28:45.715Z,48.80
2019-02-19T09:31:17.054Z,49.93
2019-02-19T09:33:48.425Z,48.68
2019-02-19T09:36:19.709Z,48.60
2019-02-19T09:38:51.070Z,49.60
2019-02-19T09:41:22.293Z,51.04
2019-02-19T09:43:53.614Z,50.06
2019-02-19T09:46:24.990Z,49.16
2019-02-19T09:48:56.300Z,46.90
2019-02-19T09:51:28.713Z,46.62
2019-02-19T09:54:00.078Z,45.56
2019-02-19T09:56:31.351Z,43.91
2019-02-19T09:59:02.629Z,44.92
2019-02-19T10:01:34.097Z,45.68
2019-02-19T10:04:05.456Z,46.03
2019-02-19T10:06:36.832Z,44.94
2019-02-19T10:09:09.642Z,44.12
2019-02-19T10:11:40.900Z,43.87
2019-02-19T10:14:12.220Z,44.30
2019-02-19T10:16:43.479Z,45.11
2019-02-19T10:19:14.773Z,44.77
2019-02-19T10:21:46.224Z,45.86
2019-02-19T10:24:17.608Z,44.38
2019-02-19T10:26:49.700Z,44.78
2019-02-19T10:29:22.665Z,44.71
2019-02-19T10:31:54.045Z,44.86
2019-02-19T10:34:25.319Z,43.81
2019-02-19T10:36:56.542Z,45.04
2019-02-19T10:39:27.822Z,43.40
2019-02-19T10:41:59.118Z,42.90
2019-02-19T10:44:30.359Z,43.21
2019-02-19T10:47:01.711Z,41.00
2019-02-19T10:49:33.104Z,42.25
2019-02-19T10:52:04.418Z,42.29
2019-02-19T10:54:35.824Z,41.36
2019-02-19T10:57:07.198Z,41.29
2019-02-19T10:59:38.529Z,41.78
2019-02-19T11:02:09.919Z,42.47
2019-02-19T11:04:41.232Z,42.20
2019-02-19T11:07:12.564Z,42.37
2019-02-19T11:09:43.940Z,41.71
2019-02-19T11:12:15.361Z,42.67
2019-02-19T11:14:46.738Z,41.00
2019-02-19T11:17:19.817Z,41.99
2019-02-19T11:19:51.037Z,41.81
2019-02-19T11:22:22.435Z,42.57
2019-02-19T11:24:53.849Z,40.65
2019-02-19T11:27:25.412Z,41.48
2019-02-19T11:29:56.851Z,39.64
2019-02-19T11:32:28.272Z,41.27
2019-02-19T11:34:59.571Z,43.08
2019-02-19T11:37:32.103Z,41.41
2019-02-19T11:40:03.433Z,40.45
2019-02-19T11:42:34.777Z,41.59
2019-02-19T11:45:09.380Z,41.41
2019-02-19T11:47:40.777Z,40.52
2019-02-19T11:50:13.102Z,42.70
2019-02-19T11:52:44.431Z,41.79
2019-02-19T11:55:18.002Z,42.18
2019-02-19T11:57:49.327Z,42.74
2019-02-19T12:00:22.263Z,42.20
2019-02-19T12:02:53.617Z,42.15
2019-02-19T12:05:24.922Z,42.01
2019-02-19T12:07:56.233Z,41.44
2019-02-19T12:10:27.549Z,40.64
2019-02-19T12:13:00.718Z,39.56
2019-02-19T12:15:35.272Z,40.41
2019-02-19T12:18:05.067Z,39.55
2019-02-19T12:20:36.490Z,40.35
2019-02-19T12:23:07.699Z,40.44
2019-02-19T12:25:38.915Z,41.54
2019-02-19T12:28:10.299Z,40.72
2019-02-19T12:30:41.531Z,41.73
2019-02-19T12:33:12.934Z,41.57
2019-02-19T12:35:44.176Z,41.91
2019-02-19T12:38:15.441Z,42.22
2019-02-19T12:40:46.812Z,41.72
2019-02-19T12:43:18.134Z,40.68
2019-02-19T12:45:49.525Z,39.76
2019-02-19T12:48:20.898Z,39.21
2019-02-19T12:50:53.387Z,39.76
2019-02-19T12:53:24.834Z,40.75
2019-02-19T12:55:56.183Z,41.06
2019-02-19T12:58:27.638Z,41.54
2019-02-19T13:00:59.005Z,42.15
2019-02-19T13:03:30.398Z,41.74
2019-02-19T13:06:01.804Z,42.13
2019-02-19T13:08:33.297Z,42.42
2019-02-19T13:11:04.704Z,42.90
2019-02-19T13:13:36.065Z,43.85
2019-02-19T13:16:07.411Z,43.07
2019-02-19T13:18:38.757Z,43.31
2019-02-19T13:21:10.093Z,43.41
2019-02-19T13:23:41.493Z,43.63
2019-02-19T13:26:12.828Z,43.24
2019-02-19T13:28:44.251Z,44.27
2019-02-19T13:31:15.603Z,43.88
2019-02-19T13:33:46.949Z,44.10
2019-02-19T13:36:18.328Z,44.40
2019-02-19T13:38:49.663Z,44.71
2019-02-19T13:41:21.126Z,43.79
2019-02-19T13:43:52.542Z,43.28
2019-02-19T13:46:23.910Z,43.29
2019-02-19T13:48:55.313Z,43.78
2019-02-19T13:51:26.687Z,43.40
2019-02-19T13:53:59.568Z,43.78
2019-02-19T13:56:30.996Z,43.79
2019-02-19T13:59:02.374Z,43.53
2019-02-19T14:01:33.801Z,43.43
2019-02-19T14:04:05.166Z,44.26
2019-02-19T14:06:36.918Z,43.53
2019-02-19T14:09:09.249Z,43.63
2019-02-19T14:11:40.792Z,43.21
2019-02-19T14:14:13.835Z,44.77
2019-02-19T14:16:46.731Z,44.68
2019-02-19T14:19:21.549Z,44.65
2019-02-19T14:21:54.250Z,45.65
2019-02-19T14:24:43.513Z,45.19
2019-02-19T14:27:25.359Z,46.35
2019-02-19T14:30:16.595Z,46.14
2019-02-19T14:32:58.783Z,46.51
2019-02-19T14:35:34.592Z,47.07
2019-02-19T14:38:16.136Z,47.40
2019-02-19T14:41:05.135Z,48.31
2019-02-19T14:43:54.294Z,48.70
2019-02-19T14:46:36.197Z,49.33
2019-02-19T14:49:34.099Z,48.86
2019-02-19T14:51:59.016Z,49.72
2019-02-19T14:54:48.065Z,49.68
2019-02-19T14:57:24.042Z,49.42
2019-02-19T14:59:57.238Z,50.17
2019-02-19T15:02:46.494Z,50.76
2019-02-19T15:05:19.476Z,51.39
2019-02-19T15:08:08.596Z,51.93
2019-02-19T15:10:57.673Z,52.21
2019-02-19T15:13:30.577Z,52.39
2019-02-19T15:16:15.356Z,52.78
2019-02-19T15:18:54.270Z,53.24
2019-02-19T15:21:27.172Z,53.04
2019-02-19T15:24:00.171Z,53.54
2019-02-19T15:26:36.013Z,53.96
2019-02-19T15:29:14.578Z,54.63
2019-02-19T15:31:50.354Z,54.31
2019-02-19T15:34:41.587Z,54.90
2019-02-19T15:37:14.536Z,55.10
2019-02-19T15:40:03.788Z,54.86
2019-02-19T15:42:36.762Z,55.54
2019-02-19T15:45:11.031Z,55.33
2019-02-19T15:47:52.987Z,56.10
2019-02-19T15:50:41.976Z,56.04
2019-02-19T15:53:17.828Z,54.96
2019-02-19T15:56:07.229Z,56.22
2019-02-19T15:58:46.140Z,56.34
2019-02-19T16:01:28.343Z,56.52
2019-02-19T16:04:10.097Z,57.59
2019-02-19T16:06:43.115Z,57.48
2019-02-19T16:09:21.836Z,57.56
2019-02-19T16:12:03.788Z,57.44
2019-02-19T16:14:36.746Z,58.91
2019-02-19T16:17:12.470Z,59.60
2019-02-19T16:19:45.437Z,59.26
2019-02-19T16:22:18.376Z,59.97
2019-02-19T16:25:09.154Z,59.20
2019-02-19T16:27:58.046Z,60.00
2019-02-19T16:30:47.278Z,60.41
2019-02-19T16:33:20.220Z,60.73
2019-02-19T16:35:58.809Z,60.57
2019-02-19T16:38:44.077Z,60.85
2019-02-19T16:41:19.777Z,61.15
2019-02-19T16:43:52.709Z,61.23
2019-02-19T16:46:37.642Z,61.39
2019-02-19T16:49:16.501Z,61.83
2019-02-19T16:51:49.368Z,62.15
2019-02-19T16:54:27.851Z,62.68
2019-02-19T16:57:06.722Z,62.89
2019-02-19T16:59:39.818Z,62.90
2019-02-19T17:02:28.002Z,62.83
2019-02-19T17:05:06.585Z,61.95
2019-02-19T17:07:39.504Z,62.64
2019-02-19T17:10:28.302Z,63.27
2019-02-19T17:13:01.263Z,63.12
2019-02-19T17:15:34.211Z,62.64
2019-02-19T17:18:13.091Z,62.08
2019-02-19T17:20:55.134Z,61.05
2019-02-19T17:23:31.074Z,60.27
2019-02-19T17:26:16.274Z,60.06
2019-02-19T17:28:58.198Z,59.29
2019-02-19T17:31:48.124Z,58.77
2019-02-19T17:34:29.904Z,58.45
2019-02-19T17:37:02.905Z,57.40
2019-02-19T17:39:52.286Z,56.80
2019-02-19T17:42:25.252Z,56.76
2019-02-19T17:45:07.210Z,57.73
2019-02-19T17:47:52.331Z,57.09
2019-02-19T17:50:41.265Z,56.94
2019-02-19T17:53:32.133Z,57.03
2019-02-19T17:56:07.666Z,56.44
2019-02-19T17:58:57.770Z,56.41
2019-02-19T18:01:31.064Z,55.93
2019-02-19T18:04:06.895Z,56.33
2019-02-19T18:06:39.817Z,56.02
2019-02-19T18:09:29.287Z,56.02
2019-02-19T18:12:02.317Z,56.79
2019-02-19T18:14:35.222Z,57.02
2019-02-19T18:17:20.009Z,57.16
2019-02-19T18:19:51.332Z,57.35
2019-02-19T18:22:22.780Z,58.21
2019-02-19T18:24:54.202Z,57.77
2019-02-19T18:27:25.571Z,58.56
2019-02-19T18:29:56.954Z,59.49
2019-02-19T18:32:28.322Z,59.46
2019-02-19T18:34:59.736Z,58.91
2019-02-19T18:37:31.105Z,59.19
2019-02-19T18:40:02.580Z,59.52
2019-02-19T18:42:35.753Z,60.40
2019-02-19T18:45:08.885Z,59.98
2019-02-19T18:47:40.222Z,60.20
2019-02-19T18:50:11.590Z,60.20
2019-02-19T18:52:42.995Z,59.75
2019-02-19T18:55:14.325Z,60.64
2019-02-19T18:57:45.756Z,61.56
2019-02-19T19:00:17.407Z,60.45
2019-02-19T19:02:48.787Z,61.78
2019-02-19T19:05:20.205Z,62.88
2019-02-19T19:07:51.714Z,63.46
2019-02-19T19:10:23.057Z,64.93
2019-02-19T19:12:54.448Z,65.18
2019-02-19T19:15:25.853Z,65.01
2019-02-19T19:17:57.312Z,65.70
2019-02-19T19:20:28.694Z,63.73
2019-02-19T19:23:00.063Z,64.97
2019-02-19T19:25:31.479Z,64.76
2019-02-19T19:28:02.857Z,64.93
2019-02-19T19:30:34.202Z,65.37
2019-02-19T19:33:05.708Z,60.93
2019-02-19T19:35:37.172Z,59.34
2019-02-19T19:38:08.615Z,58.29
2019-02-19T19:40:39.979Z,57.44
2019-02-19T19:43:11.426Z,57.56
2019-02-19T19:45:42.794Z,57.67
2019-02-19T19:48:14.196Z,57.45
2019-02-19T19:50:45.530Z,57.02
2019-02-19T19:53:16.940Z,57.43
2019-02-19T19:55:48.272Z,57.54
2019-02-19T19:58:19.808Z,57.92
2019-02-19T20:00:51.183Z,57.95
2019-02-19T20:03:22.596Z,57.51
2019-02-19T20:05:53.987Z,57.72
2019-02-19T20:08:25.401Z,57.55
2019-02-19T20:10:56.952Z,57.17
2019-02-19T20:13:28.600Z,56.84
2019-02-19T20:16:00.038Z,57.07
2019-02-19T20:18:38.944Z,57.14
2019-02-19T20:21:04.613Z,57.83
2019-02-19T20:23:36.026Z,57.38
2019-02-19T20:26:07.484Z,57.78
2019-02-19T20:28:38.928Z,58.26
2019-02-19T20:31:10.375Z,58.62
2019-02-19T20:33:41.769Z,58.98
2019-02-19T20:36:13.168Z,59.78
2019-02-19T20:38:44.577Z,59.47
2019-02-19T20:41:15.980Z,60.60
2019-02-19T20:43:47.323Z,61.07
2019-02-19T20:46:18.668Z,61.65
2019-02-19T20:48:50.027Z,61.83
2019-02-19T20:51:22.829Z,62.04
2019-02-19T20:53:54.281Z,62.50
2019-02-19T20:56:25.748Z,63.13
2019-02-19T20:58:57.166Z,63.72
2019-02-19T21:01:28.902Z,63.79
2019-02-19T21:04:00.313Z,65.31
2019-02-19T21:06:31.745Z,64.71
2019-02-19T21:09:03.091Z,64.93
2019-02-19T21:11:36.159Z,65.69
2019-02-19T21:14:08.707Z,65.70
2019-02-19T21:16:40.932Z,66.20
2019-02-19T21:19:12.335Z,66.81
2019-02-19T21:21:45.146Z,66.89
2019-02-19T21:24:17.764Z,67.81
2019-02-19T21:26:49.244Z,67.69
2019-02-19T21:29:21.998Z,68.20
2019-02-19T21:31:53.513Z,67.98
2019-02-19T21:34:24.943Z,68.34
2019-02-19T21:36:56.295Z,69.06
2019-02-19T21:39:27.689Z,69.46
2019-02-19T21:41:59.304Z,69.40
2019-02-19T21:44:30.674Z,69.60
2019-02-19T21:47:02.068Z,70.35
2019-02-19T21:49:33.471Z,70.55
2019-02-19T21:52:04.820Z,70.49
2019-02-19T21:54:36.197Z,70.55
2019-02-19T21:57:07.715Z,70.98
2019-02-19T21:59:39.051Z,71.34
2019-02-19T22:02:16.265Z,71.68
2019-02-19T22:04:43.493Z,71.83
2019-02-19T22:07:14.845Z,71.80
2019-02-19T22:09:46.244Z,71.99
2019-02-19T22:12:18.629Z,72.51
2019-02-19T22:14:50.156Z,72.14
2019-02-19T22:17:21.550Z,72.52
2019-02-19T22:20:02.543Z,72.27
2019-02-19T22:22:26.156Z,72.72
2019-02-19T22:24:57.542Z,72.28
2019-02-19T22:27:28.894Z,72.32
2019-02-19T22:30:00.425Z,72.38
2019-02-19T22:32:31.761Z,72.25
2019-02-19T22:35:03.121Z,71.76
2019-02-19T22:37:34.748Z,71.32
2019-02-19T22:40:08.179Z,70.70
2019-02-19T22:42:39.884Z,70.13
2019-02-19T22:45:11.217Z,70.09
2019-02-19T22:47:42.609Z,69.05
2019-02-19T22:50:14.044Z,68.76
2019-02-19T22:52:45.402Z,69.12
2019-02-19T22:55:36.661Z,68.41
2019-02-19T22:58:07.997Z,68.43
2019-02-19T23:00:49.980Z,68.21
2019-02-19T23:03:27.079Z,67.11
2019-02-19T23:05:58.462Z,67.48
2019-02-19T23:08:30.463Z,67.36
2019-02-19T23:11:01.116Z,67.12
2019-02-19T23:13:32.309Z,66.29
2019-02-19T23:16:03.666Z,66.85
2019-02-19T23:18:35.092Z,67.46
2019-02-19T23:21:06.430Z,67.56
2019-02-19T23:23:37.777Z,67.75
2019-02-19T23:26:09.216Z,67.30
2019-02-19T23:28:40.589Z,67.32
2019-02-19T23:31:11.938Z,67.60
2019-02-19T23:33:43.349Z,67.47
2019-02-19T23:36:32.814Z,67.67
2019-02-19T23:39:05.578Z,67.24
2019-02-19T23:41:38.564Z,68.18
2019-02-19T23:44:09.977Z,67.52
2019-02-19T23:46:44.038Z,67.65
2019-02-19T23:49:15.559Z,67.93
2019-02-19T23:51:47.140Z,68.10
2019-02-19T23:54:18.489Z,68.34
2019-02-19T23:56:49.954Z,69.02
2019-02-19T23:59:21.341Z,68.36
